Time;durP1;ratioP1;P1;durP2;ratioP2;P2;SDS_P1;SDS_P2;PMS_P1;PMS_P2;Temp;Humidity;BMP_temperature;BMP_pressure;BME280_temperature;BME280_humidity;BME280_pressure;Samples;Min_cycle;Max_cycle;Signal;HPM_P1;HPM_P2
2021/12/26 00:01:41;;;;;;;124.40;49.20;;;;;;;-9.22;90.21;100623.66;104590;1326;72453;-78
2021/12/26 00:04:13;;;;;;;132.80;46.90;;;;;;;-9.22;90.23;100622.12;105039;1322;62609;-79
2021/12/26 00:06:41;;;;;;;124.90;48.50;;;;;;;-9.22;90.20;100630.16;104509;1322;62111;-78
2021/12/26 00:09:09;;;;;;;116.40;47.00;;;;;;;-9.23;90.08;100632.92;104616;1328;74099;-79
2021/12/26 00:11:35;;;;;;;117.40;46.60;;;;;;;-9.25;90.10;100632.66;104609;1325;71467;-79
2021/12/26 00:14:05;;;;;;;120.40;48.30;;;;;;;-9.28;90.15;100636.20;104664;1321;73067;-79
2021/12/26 00:16:33;;;;;;;125.50;48.80;;;;;;;-9.26;90.53;100641.43;104754;1328;61746;-79
2021/12/26 00:19:00;;;;;;;131.40;48.40;;;;;;;-9.24;90.65;100641.19;105103;1326;62102;-79
2021/12/26 00:21:27;;;;;;;127.40;49.20;;;;;;;-9.19;90.89;100644.62;104603;1329;75906;-79
2021/12/26 00:23:57;;;;;;;117.80;49.40;;;;;;;-9.18;90.51;100644.59;104483;1327;72618;-79
2021/12/26 00:26:30;;;;;;;111.60;47.70;;;;;;;-9.22;89.82;100644.38;104780;1326;72869;-78
2021/12/26 00:28:57;;;;;;;133.10;49.70;;;;;;;-9.25;89.77;100641.23;105036;1322;62579;-78
2021/12/26 00:31:24;;;;;;;135.30;50.80;;;;;;;-9.28;90.12;100636.52;103940;1329;60528;-79
2021/12/26 00:33:51;;;;;;;135.90;50.60;;;;;;;-9.27;90.40;100629.64;104988;1327;73939;-78
2021/12/26 00:36:19;;;;;;;24.30;15.10;;;;;;;-9.28;90.11;100620.25;105058;1327;72100;-79
2021/12/26 00:39:02;;;;;;;20.30;12.10;;;;;;;-9.26;90.65;100624.64;104766;1328;73933;-79
2021/12/26 00:41:29;;;;;;;20.90;11.20;;;;;;;-9.24;90.82;100622.70;104976;1309;61606;-79
2021/12/26 00:43:56;;;;;;;22.90;10.50;;;;;;;-9.24;90.71;100621.14;103956;1312;61424;-80
2021/12/26 00:46:23;;;;;;;32.90;11.60;;;;;;;-9.23;90.52;100622.67;105055;1322;75348;-81
2021/12/26 00:48:50;;;;;;;19.50;10.30;;;;;;;-9.25;90.41;100625.29;104946;1325;71385;-80
2021/12/26 00:51:17;;;;;;;21.80;11.10;;;;;;;-9.26;90.48;100624.48;104776;1322;73967;-80
2021/12/26 00:53:44;;;;;;;19.40;8.40;;;;;;;-9.27;90.42;100625.19;104449;1325;61529;-81
2021/12/26 00:56:10;;;;;;;19.20;11.00;;;;;;;-9.27;90.80;100616.45;104636;1309;61785;-79
2021/12/26 00:58:37;;;;;;;19.20;10.10;;;;;;;-9.26;90.81;100618.64;105306;1322;75638;-80
2021/12/26 01:01:05;;;;;;;17.20;10.10;;;;;;;-9.25;90.82;100618.44;104908;1322;72155;-80
2021/12/26 01:03:32;;;;;;;20.80;9.60;;;;;;;-9.23;90.66;100620.45;105275;1319;74176;-80
2021/12/26 01:05:59;;;;;;;19.00;9.60;;;;;;;-9.23;90.95;100617.67;105279;1321;61536;-81
2021/12/26 01:08:30;;;;;;;25.30;9.70;;;;;;;-9.24;90.55;100618.42;105318;1321;60668;-81
2021/12/26 01:11:04;;;;;;;11.40;8.00;;;;;;;-9.24;90.57;100618.92;104506;1328;74924;-81
2021/12/26 01:13:37;;;;;;;12.40;8.60;;;;;;;-9.28;90.28;100621.96;105281;1324;70189;-81
2021/12/26 01:16:10;;;;;;;16.60;8.40;;;;;;;-9.33;90.05;100621.95;104879;1322;72986;-81
2021/12/26 01:18:44;;;;;;;18.00;8.80;;;;;;;-9.36;90.20;100619.99;105282;1323;61909;-81
2021/12/26 01:21:21;;;;;;;14.30;8.90;;;;;;;-9.37;90.18;100623.98;105216;1322;61798;-81
2021/12/26 01:23:55;;;;;;;14.90;9.50;;;;;;;-9.38;90.57;100623.99;104927;1323;75031;-81
2021/12/26 01:26:23;;;;;;;18.40;6.80;;;;;;;-9.38;90.55;100622.80;105227;1322;71491;-80
2021/12/26 01:28:50;;;;;;;17.20;8.90;;;;;;;-9.40;90.45;100615.85;104857;1326;74109;-80
2021/12/26 01:31:19;;;;;;;12.00;6.40;;;;;;;-9.41;90.47;100615.56;105290;1322;62642;-80
2021/12/26 01:33:51;;;;;;;12.00;7.60;;;;;;;-9.44;90.25;100609.98;105205;1326;60730;-80
2021/12/26 01:36:18;;;;;;;12.40;6.60;;;;;;;-9.47;90.25;100606.84;104893;1324;75198;-80
2021/12/26 01:38:46;;;;;;;14.00;8.50;;;;;;;-9.51;90.29;100602.34;104886;1323;72414;-80
2021/12/26 01:41:16;;;;;;;16.40;9.40;;;;;;;-9.52;90.27;100604.95;104860;1320;73994;-80
2021/12/26 01:43:46;;;;;;;14.50;7.90;;;;;;;-9.55;90.40;100606.75;104943;1325;62736;-80
2021/12/26 01:46:15;;;;;;;19.60;8.50;;;;;;;-9.53;90.45;100610.45;105481;1306;61775;-79
2021/12/26 01:48:41;;;;;;;17.30;9.90;;;;;;;-9.53;90.81;100610.61;105071;1325;76490;-80
2021/12/26 01:51:09;;;;;;;19.80;9.70;;;;;;;-9.50;90.92;100614.80;105251;1326;70179;-80
2021/12/26 01:53:38;;;;;;;16.80;8.70;;;;;;;-9.49;90.71;100613.23;104997;1324;73019;-80
2021/12/26 01:56:11;;;;;;;21.50;8.30;;;;;;;-9.51;90.38;100613.12;105110;1318;61655;-81
2021/12/26 01:58:40;;;;;;;17.00;9.40;;;;;;;-9.54;90.19;100614.59;105007;1323;60943;-80
2021/12/26 02:01:10;;;;;;;14.30;8.70;;;;;;;-9.56;90.45;100615.02;104398;1326;75004;-80
2021/12/26 02:03:40;;;;;;;13.40;7.70;;;;;;;-9.58;90.16;100609.95;104987;1322;71557;-80
2021/12/26 02:06:09;;;;;;;15.20;7.70;;;;;;;-9.59;90.42;100607.40;104961;1322;74021;-80
2021/12/26 02:08:36;;;;;;;23.70;9.90;;;;;;;-9.60;90.48;100609.98;104857;1325;61542;-80
2021/12/26 02:11:04;;;;;;;17.20;9.50;;;;;;;-9.60;90.60;100607.41;104991;1322;60966;-80
2021/12/26 02:13:34;;;;;;;15.90;7.60;;;;;;;-9.62;90.28;100610.22;104469;1325;73904;-80
2021/12/26 02:16:01;;;;;;;14.90;9.10;;;;;;;-9.64;90.21;100610.27;104776;1319;73324;-81
2021/12/26 02:18:28;;;;;;;13.40;8.10;;;;;;;-9.63;90.35;100609.23;104928;1324;72288;-81
2021/12/26 02:23:47;;;;;;;13.20;7.80;;;;;;;-9.61;90.63;100605.59;105182;1321;60585;-80
2021/12/26 02:28:59;;;;;;;16.80;9.90;;;;;;;-9.57;90.69;100603.39;105293;1322;72583;-81
2021/12/26 02:31:26;;;;;;;11.20;6.80;;;;;;;-9.58;90.56;100601.88;105248;1322;72582;-80
2021/12/26 02:33:53;;;;;;;16.50;8.60;;;;;;;-9.58;90.60;100594.86;104728;1316;61447;-81
2021/12/26 02:36:19;;;;;;;24.70;10.00;;;;;;;-9.58;90.62;100595.02;105052;1321;60609;-80
2021/12/26 02:38:47;;;;;;;18.60;9.80;;;;;;;-9.59;90.63;100596.59;104182;1325;74343;-80
2021/12/26 02:41:14;;;;;;;17.00;9.50;;;;;;;-9.58;90.49;100596.38;104979;1321;72089;-81
2021/12/26 02:43:45;;;;;;;21.00;9.60;;;;;;;-9.57;90.50;100596.36;104515;1323;73108;-81
2021/12/26 02:46:12;;;;;;;24.20;11.20;;;;;;;-9.56;90.35;100594.11;103947;1322;62526;-80
2021/12/26 02:48:39;;;;;;;24.10;10.40;;;;;;;-9.58;89.89;100594.02;105088;1322;60616;-81
2021/12/26 02:51:06;;;;;;;21.10;11.20;;;;;;;-9.62;89.77;100592.76;105194;1321;75172;-81
2021/12/26 02:53:34;;;;;;;18.10;9.30;;;;;;;-9.66;89.73;100592.40;105106;1322;71312;-80
2021/12/26 02:56:02;;;;;;;20.10;9.30;;;;;;;-9.65;90.26;100589.28;105131;1322;74275;-80
2021/12/26 02:58:29;;;;;;;18.20;10.10;;;;;;;-9.66;90.14;100589.31;103703;1322;61410;-81
2021/12/26 03:01:01;;;;;;;20.40;10.40;;;;;;;-9.68;89.88;100586.79;104967;1324;60731;-80
2021/12/26 03:03:29;;;;;;;17.20;10.40;;;;;;;-9.67;89.94;100585.05;105081;1328;75221;-80
2021/12/26 03:06:00;;;;;;;16.60;10.00;;;;;;;-9.68;89.76;100583.20;104643;1325;70253;-81
2021/12/26 03:08:27;;;;;;;21.20;10.40;;;;;;;-9.73;89.54;100579.59;105057;1327;72787;-81
2021/12/26 03:10:54;;;;;;;19.20;10.20;;;;;;;-9.76;89.47;100580.73;105088;1327;61467;-80
2021/12/26 03:13:23;;;;;;;21.20;10.60;;;;;;;-9.78;89.57;100578.39;104918;1323;60753;-80
2021/12/26 03:15:50;;;;;;;17.00;9.60;;;;;;;-9.78;89.85;100575.98;105124;1322;74903;-80
2021/12/26 03:18:16;;;;;;;18.50;9.80;;;;;;;-9.78;89.92;100569.33;105209;1322;71513;-81
2021/12/26 03:20:47;;;;;;;17.50;10.20;;;;;;;-9.75;90.18;100565.64;104879;1324;74490;-81
2021/12/26 03:23:18;;;;;;;20.90;9.60;;;;;;;-9.76;89.91;100565.30;104546;1326;61631;-81
2021/12/26 03:25:45;;;;;;;17.40;10.00;;;;;;;-9.78;89.70;100563.84;105209;1327;59617;-81
2021/12/26 03:28:13;;;;;;;18.80;10.40;;;;;;;-9.78;89.82;100563.84;105119;1322;76273;-81
2021/12/26 03:30:41;;;;;;;17.70;9.80;;;;;;;-9.77;89.80;100568.09;104840;1323;72824;-80
2021/12/26 03:33:10;;;;;;;18.90;9.70;;;;;;;-9.82;89.32;100569.96;105111;1311;72294;-79
2021/12/26 03:35:37;;;;;;;23.80;9.60;;;;;;;-9.88;88.79;100572.70;104449;1315;64808;-81
2021/12/26 03:38:05;;;;;;;15.00;10.00;;;;;;;-9.94;88.91;100572.90;105046;1323;60707;-80
2021/12/26 03:40:33;;;;;;;15.30;9.40;;;;;;;-9.95;89.10;100572.58;105038;1315;76259;-80
2021/12/26 03:43:00;;;;;;;18.60;9.80;;;;;;;-9.99;89.09;100575.09;104653;1328;72714;-81
2021/12/26 03:45:41;;;;;;;25.60;11.20;;;;;;;-10.00;89.06;100577.37;105217;1326;72812;-81
2021/12/26 03:48:09;;;;;;;20.00;9.90;;;;;;;-9.98;89.93;100574.56;104756;1320;63133;-82
2021/12/26 03:50:40;;;;;;;20.10;9.60;;;;;;;-9.94;89.93;100572.23;104708;1320;59137;-80
2021/12/26 03:53:08;;;;;;;32.10;10.00;;;;;;;-9.92;90.04;100571.14;104957;1327;76405;-80
2021/12/26 03:55:35;;;;;;;27.80;10.40;;;;;;;-9.89;89.92;100570.16;104239;1325;71412;-81
2021/12/26 03:58:02;;;;;;;16.20;9.10;;;;;;;-9.89;89.64;100564.70;105306;1320;73694;-80
2021/12/26 04:00:30;;;;;;;20.40;9.60;;;;;;;-9.87;89.51;100567.88;104996;1322;62924;-80
2021/12/26 04:02:57;;;;;;;15.60;8.30;;;;;;;-9.88;89.24;100563.48;104969;1327;60462;-80
2021/12/26 04:05:24;;;;;;;16.50;9.40;;;;;;;-9.90;89.08;100562.17;104032;1320;75152;-80
2021/12/26 04:07:51;;;;;;;17.80;8.60;;;;;;;-9.94;89.11;100562.46;105316;1322;70604;-80
2021/12/26 04:10:19;;;;;;;13.10;7.40;;;;;;;-9.96;89.12;100554.15;104750;1327;74155;-80
2021/12/26 04:12:48;;;;;;;10.20;6.00;;;;;;;-9.97;89.06;100550.23;104759;1328;61385;-80
2021/12/26 04:15:20;;;;;;;12.00;6.90;;;;;;;-10.01;89.03;100551.38;104637;1322;60714;-80
2021/12/26 04:17:48;;;;;;;15.30;9.30;;;;;;;-10.03;88.85;100550.23;105089;1328;74927;-80
2021/12/26 04:20:15;;;;;;;17.20;9.40;;;;;;;-10.04;89.25;100542.26;104991;1322;71512;-79
2021/12/26 04:22:41;;;;;;;14.70;7.40;;;;;;;-10.02;89.20;100541.34;104646;1326;72938;-78
2021/12/26 04:25:09;;;;;;;12.60;7.00;;;;;;;-10.01;89.36;100536.35;105030;1322;61487;-79
2021/12/26 04:27:37;;;;;;;20.00;8.20;;;;;;;-10.00;89.07;100535.13;103673;1328;60725;-79
2021/12/26 04:30:06;;;;;;;17.50;8.20;;;;;;;-10.01;89.07;100530.18;103835;1322;76048;-78
2021/12/26 04:32:33;;;;;;;15.60;9.50;;;;;;;-10.02;88.97;100530.89;105024;1328;71513;-79
2021/12/26 04:35:00;;;;;;;13.30;8.10;;;;;;;-10.01;88.95;100532.41;105006;1325;72999;-79
2021/12/26 04:37:27;;;;;;;15.90;8.80;;;;;;;-10.02;88.88;100534.31;105025;1327;60393;-79
2021/12/26 04:39:53;;;;;;;17.70;9.10;;;;;;;-10.02;88.93;100531.41;104705;1328;61848;-79
2021/12/26 04:42:23;;;;;;;25.70;9.30;;;;;;;-10.01;88.74;100534.63;104693;1328;75317;-79
2021/12/26 04:44:53;;;;;;;17.50;9.20;;;;;;;-10.01;89.13;100540.09;104998;1322;71505;-79
2021/12/26 04:47:20;;;;;;;21.20;9.30;;;;;;;-10.01;88.90;100539.59;104567;1324;73986;-79
2021/12/26 04:49:47;;;;;;;14.30;8.90;;;;;;;-10.02;88.86;100539.63;104116;1327;61260;-79
2021/12/26 04:52:14;;;;;;;17.60;9.50;;;;;;;-10.01;89.15;100538.23;105002;1321;61328;-78
2021/12/26 04:54:41;;;;;;;17.30;8.60;;;;;;;-9.98;89.38;100540.18;104979;1323;76138;-79
2021/12/26 04:57:11;;;;;;;9.40;5.70;;;;;;;-9.96;89.36;100534.30;104993;1327;72564;-79
2021/12/26 04:59:38;;;;;;;11.70;6.70;;;;;;;-9.97;88.95;100531.77;104083;1328;73982;-79
2021/12/26 05:02:08;;;;;;;12.40;6.50;;;;;;;-9.96;89.00;100530.89;103954;1328;61613;-79
2021/12/26 05:04:35;;;;;;;17.20;8.80;;;;;;;-9.99;88.87;100533.20;104451;1325;60996;-79
2021/12/26 05:07:02;;;;;;;19.70;9.70;;;;;;;-10.02;88.62;100533.13;104691;1328;76317;-79
2021/12/26 05:09:32;;;;;;;21.70;10.70;;;;;;;-10.02;88.91;100529.02;104590;1328;72857;-79
2021/12/26 05:12:02;;;;;;;16.30;9.20;;;;;;;-10.02;89.02;100526.79;104991;1325;73052;-79
2021/12/26 05:14:29;;;;;;;8.40;5.70;;;;;;;-10.04;88.77;100525.14;105011;1322;61802;-79
2021/12/26 05:16:58;;;;;;;14.30;9.00;;;;;;;-10.07;88.54;100528.14;104995;1328;60834;-79
2021/12/26 05:19:25;;;;;;;16.80;8.90;;;;;;;-10.11;88.36;100527.43;105011;1324;75930;-79
2021/12/26 05:21:54;;;;;;;18.10;7.90;;;;;;;-10.16;88.49;100533.55;104987;1322;72400;-79
2021/12/26 05:24:20;;;;;;;18.80;9.00;;;;;;;-10.19;88.20;100532.98;104991;1325;73114;-78
2021/12/26 05:26:49;;;;;;;16.10;9.70;;;;;;;-10.20;88.94;100531.46;104668;1328;62508;-78
2021/12/26 05:29:17;;;;;;;16.90;10.50;;;;;;;-10.19;88.90;100531.23;104699;1325;60460;-79
2021/12/26 05:31:52;;;;;;;20.80;9.30;;;;;;;-10.20;88.79;100530.27;104799;1326;73910;-79
2021/12/26 05:34:20;;;;;;;18.70;8.20;;;;;;;-10.25;88.12;100530.92;105155;1325;71386;-79
2021/12/26 05:36:47;;;;;;;22.40;10.30;;;;;;;-10.29;88.38;100525.73;105098;1323;71867;-79
2021/12/26 05:39:20;;;;;;;14.50;8.60;;;;;;;-10.31;88.40;100517.98;104697;1325;63154;-79
2021/12/26 05:41:57;;;;;;;12.20;8.00;;;;;;;-10.32;88.45;100516.96;104375;1322;60778;-79
2021/12/26 05:44:24;;;;;;;15.30;7.30;;;;;;;-10.31;89.13;100510.60;103860;1328;75212;-79
2021/12/26 05:46:50;;;;;;;15.70;8.80;;;;;;;-10.31;89.18;100510.95;104359;1321;71641;-79
2021/12/26 05:49:18;;;;;;;14.70;8.30;;;;;;;-10.30;89.14;100510.23;105118;1319;72745;-79
2021/12/26 05:51:45;;;;;;;12.50;7.60;;;;;;;-10.30;89.39;100512.46;105037;1323;62422;-79
2021/12/26 05:54:14;;;;;;;13.50;6.60;;;;;;;-10.30;89.16;100511.45;104808;1328;60806;-79
2021/12/26 05:56:42;;;;;;;16.50;8.10;;;;;;;-10.30;89.43;100513.67;104808;1326;73962;-79
2021/12/26 05:59:09;;;;;;;16.00;7.90;;;;;;;-10.29;89.38;100514.98;105107;1322;71763;-80
2021/12/26 06:01:36;;;;;;;6.90;3.40;;;;;;;-10.27;89.62;100518.17;104732;1325;73004;-79
2021/12/26 06:04:03;;;;;;;14.10;7.20;;;;;;;-10.28;89.18;100513.57;104604;1328;61599;-79
2021/12/26 06:06:30;;;;;;;19.50;7.30;;;;;;;-10.28;89.65;100516.13;104750;1328;60788;-79
2021/12/26 06:08:57;;;;;;;13.00;6.60;;;;;;;-10.26;89.84;100518.30;105092;1322;74983;-80
2021/12/26 06:11:24;;;;;;;15.80;7.60;;;;;;;-10.27;89.55;100520.70;105099;1325;72628;-79
2021/12/26 06:13:55;;;;;;;16.70;8.60;;;;;;;-10.26;89.67;100522.91;105055;1321;73913;-79
2021/12/26 06:16:22;;;;;;;10.60;6.20;;;;;;;-10.25;89.56;100522.02;105055;1322;61586;-79
2021/12/26 06:18:51;;;;;;;17.20;8.00;;;;;;;-10.26;89.56;100524.28;105052;1321;61674;-79
2021/12/26 06:21:18;;;;;;;20.90;9.40;;;;;;;-10.22;90.05;100519.22;104598;1328;75001;-79
2021/12/26 06:23:51;;;;;;;10.10;6.80;;;;;;;-10.21;89.86;100515.06;105086;1321;72007;-78
2021/12/26 06:26:19;;;;;;;13.60;7.40;;;;;;;-10.22;89.44;100518.71;105170;1321;73983;-79
2021/12/26 06:28:46;;;;;;;11.20;6.30;;;;;;;-10.22;89.90;100518.71;105103;1321;60182;-79
2021/12/26 06:31:13;;;;;;;23.00;8.20;;;;;;;-10.22;89.86;100520.40;105098;1322;60568;-79
2021/12/26 06:33:43;;;;;;;16.70;6.80;;;;;;;-10.21;89.70;100522.95;104641;1312;74988;-78
2021/12/26 06:36:10;;;;;;;21.60;10.60;;;;;;;-10.19;90.09;100522.37;105126;1325;71830;-79
2021/12/26 06:38:37;;;;;;;12.30;4.20;;;;;;;-10.18;90.00;100524.57;102013;1325;3634897;-79
2021/12/26 06:41:05;;;;;;;16.80;7.80;;;;;;;-10.20;89.27;100525.65;105028;1325;61485;-79
2021/12/26 06:43:34;;;;;;;20.90;9.90;;;;;;;-10.21;89.60;100523.45;105109;1324;63047;-79
2021/12/26 06:46:01;;;;;;;17.80;7.90;;;;;;;-10.23;89.80;100523.52;105041;1324;75098;-79
2021/12/26 06:48:42;;;;;;;16.20;6.90;;;;;;;-10.22;89.63;100525.38;104602;1325;70833;-79
2021/12/26 06:51:09;;;;;;;16.30;6.80;;;;;;;-10.21;89.77;100521.41;104876;1325;72965;-79
2021/12/26 06:53:36;;;;;;;8.50;6.30;;;;;;;-10.22;89.63;100520.40;103994;1321;61134;-80
2021/12/26 06:56:05;;;;;;;14.40;7.90;;;;;;;-10.22;89.74;100517.84;104919;1322;61361;-79
2021/12/26 06:58:33;;;;;;;20.10;6.40;;;;;;;-10.22;89.93;100510.84;104838;1324;76182;-79
2021/12/26 07:01:02;;;;;;;13.60;6.40;;;;;;;-10.26;89.59;100513.84;105081;1325;72456;-79
2021/12/26 07:03:29;;;;;;;14.00;6.70;;;;;;;-10.27;89.74;100504.48;105105;1321;72785;-80
2021/12/26 07:05:56;;;;;;;14.30;7.70;;;;;;;-10.26;90.05;100502.89;104843;1328;62595;-80
2021/12/26 07:08:23;;;;;;;12.00;6.70;;;;;;;-10.26;89.77;100501.71;105072;1322;61713;-79
2021/12/26 07:10:50;;;;;;;13.70;7.90;;;;;;;-10.28;89.81;100498.02;104692;1325;75113;-79
2021/12/26 07:13:17;;;;;;;14.00;5.50;;;;;;;-10.29;89.71;100503.52;105077;1321;71668;-79
2021/12/26 07:15:44;;;;;;;14.40;7.80;;;;;;;-10.31;89.34;100506.68;103945;1330;74187;-79
2021/12/26 07:18:13;;;;;;;26.70;11.40;;;;;;;-10.34;89.48;100512.06;104827;1324;62244;-79
2021/12/26 07:20:40;;;;;;;29.40;11.10;;;;;;;-10.36;89.26;100515.73;104537;1328;62135;-80
2021/12/26 07:23:07;;;;;;;16.70;8.20;;;;;;;-10.35;89.84;100519.63;104581;1324;76070;-79
2021/12/26 07:25:35;;;;;;;19.70;8.50;;;;;;;-10.33;90.16;100522.99;104887;1325;71389;-79
2021/12/26 07:28:02;;;;;;;14.30;7.90;;;;;;;-10.33;89.97;100524.17;105053;1326;73044;-79
2021/12/26 07:30:34;;;;;;;13.40;8.00;;;;;;;-10.34;89.62;100525.24;104653;1318;63183;-80
2021/12/26 07:33:01;;;;;;;12.30;7.30;;;;;;;-10.36;89.50;100528.21;104657;1324;59925;-79
2021/12/26 07:35:27;;;;;;;11.20;6.70;;;;;;;-10.35;89.71;100527.98;104172;1325;73793;-79
2021/12/26 07:37:54;;;;;;;10.30;6.40;;;;;;;-10.33;89.89;100532.58;104907;1326;71452;-79
2021/12/26 07:40:26;;;;;;;18.60;8.40;;;;;;;-10.30;89.79;100534.69;104866;1326;74689;-79
2021/12/26 07:42:53;;;;;;;15.20;8.30;;;;;;;-10.29;89.90;100534.98;104624;1328;62568;-80
2021/12/26 07:45:20;;;;;;;16.10;7.60;;;;;;;-10.29;89.61;100534.96;104949;1322;61876;-79
2021/12/26 07:47:47;;;;;;;12.60;7.20;;;;;;;-10.25;89.97;100536.56;104973;1324;76167;-79
2021/12/26 07:50:13;;;;;;;22.20;8.50;;;;;;;-10.23;89.80;100533.95;104807;1323;71640;-79
2021/12/26 07:52:42;;;;;;;25.20;7.80;;;;;;;-10.19;89.85;100538.95;104847;1325;74124;-79
2021/12/26 07:55:13;;;;;;;10.80;7.50;;;;;;;-10.17;90.00;100542.48;104935;1322;61511;-79
2021/12/26 07:57:44;;;;;;;11.10;6.10;;;;;;;-10.11;90.30;100543.34;104795;1320;59862;-79
2021/12/26 08:00:11;;;;;;;12.90;6.80;;;;;;;-10.09;89.92;100538.13;104797;1321;75975;-79
2021/12/26 08:02:38;;;;;;;11.20;6.50;;;;;;;-10.09;89.59;100538.45;104180;1328;70460;-80
2021/12/26 08:05:05;;;;;;;11.60;5.60;;;;;;;-10.07;89.72;100541.33;104911;1323;72591;-80
2021/12/26 08:07:33;;;;;;;12.70;6.70;;;;;;;-10.06;89.51;100538.71;104961;1322;62254;-79
2021/12/26 08:10:02;;;;;;;11.70;5.50;;;;;;;-10.03;89.86;100537.07;104200;1331;60726;-80
2021/12/26 08:12:29;;;;;;;13.70;7.20;;;;;;;-10.02;89.55;100538.76;104756;1323;74915;-80
2021/12/26 08:14:56;;;;;;;11.30;7.60;;;;;;;-9.99;89.71;100537.61;104780;1324;72609;-80
2021/12/26 08:17:24;;;;;;;10.60;6.10;;;;;;;-9.95;89.73;100539.91;104712;1327;72902;-82
2021/12/26 08:19:50;;;;;;;16.70;8.70;;;;;;;-9.90;89.82;100542.33;104912;1322;60082;-80
2021/12/26 08:22:17;;;;;;;16.60;8.00;;;;;;;-9.85;89.76;100542.35;104991;1321;59426;-80
2021/12/26 08:24:44;;;;;;;13.70;7.00;;;;;;;-9.81;89.67;100543.08;104899;1322;74898;-79
2021/12/26 08:27:11;;;;;;;12.20;6.90;;;;;;;-9.78;89.39;100539.72;104868;1323;71498;-80
2021/12/26 08:29:39;;;;;;;13.20;7.60;;;;;;;-9.75;89.28;100543.20;104927;1322;72876;-80
2021/12/26 08:32:06;;;;;;;14.00;8.40;;;;;;;-9.73;89.41;100542.79;105035;1328;61638;-79
2021/12/26 08:34:33;;;;;;;8.30;6.60;;;;;;;-9.69;89.60;100540.28;103717;1333;61167;-79
2021/12/26 08:37:03;;;;;;;11.40;6.80;;;;;;;-9.64;89.51;100536.17;104479;1323;76091;-79
2021/12/26 08:39:33;;;;;;;8.40;4.30;;;;;;;-9.61;89.26;100529.73;104971;1322;71385;-80
2021/12/26 08:42:00;;;;;;;12.80;5.90;;;;;;;-9.56;89.63;100523.94;104886;1322;73067;-80
2021/12/26 08:44:32;;;;;;;14.80;7.40;;;;;;;-9.52;89.49;100525.52;104819;1323;60352;-79
2021/12/26 08:46:59;;;;;;;19.00;8.70;;;;;;;-9.48;89.62;100523.34;104934;1322;60590;-80
2021/12/26 08:49:27;;;;;;;16.10;8.50;;;;;;;-9.44;89.46;100518.04;104757;1325;74986;-80
2021/12/26 08:51:53;;;;;;;16.00;7.30;;;;;;;-9.38;89.49;100516.98;104931;1321;72537;-80
2021/12/26 08:54:22;;;;;;;16.10;7.20;;;;;;;-9.34;89.46;100516.52;104924;1324;73193;-79
2021/12/26 08:56:49;;;;;;;10.40;6.80;;;;;;;-9.30;89.43;100513.95;104939;1322;61534;-80
2021/12/26 08:59:16;;;;;;;7.70;4.30;;;;;;;-9.23;89.67;100517.00;103776;1325;60338;-80
2021/12/26 09:01:45;;;;;;;18.00;6.90;;;;;;;-9.17;89.52;100516.27;104866;1323;74958;-79
2021/12/26 09:04:13;;;;;;;22.00;12.30;;;;;;;-9.10;89.46;100520.64;104759;1322;70788;-80
2021/12/26 09:06:40;;;;;;;21.80;10.00;;;;;;;-9.03;89.59;100518.01;104848;1324;72982;-80
2021/12/26 09:09:12;;;;;;;14.80;7.60;;;;;;;-8.93;89.68;100514.21;105020;1321;62512;-79
2021/12/26 09:11:41;;;;;;;14.20;6.40;;;;;;;-8.85;89.60;100519.90;104207;1329;60618;-80
2021/12/26 09:14:08;;;;;;;18.60;8.30;;;;;;;-8.75;89.50;100519.23;104430;1312;74943;-78
2021/12/26 09:16:36;;;;;;;17.40;8.30;;;;;;;-8.69;89.49;100517.43;105230;1320;73631;-80
2021/12/26 09:19:06;;;;;;;13.20;7.80;;;;;;;-8.58;89.40;100517.23;104847;1320;73960;-80
2021/12/26 09:21:35;;;;;;;14.30;9.50;;;;;;;-8.48;89.50;100518.58;104371;1324;62499;-79
2021/12/26 09:24:04;;;;;;;22.20;10.60;;;;;;;-8.38;89.40;100515.75;104901;1323;61702;-80
2021/12/26 09:26:31;;;;;;;23.80;7.80;;;;;;;-8.28;89.49;100516.17;104895;1325;76353;-80
2021/12/26 09:28:58;;;;;;;17.10;8.70;;;;;;;-8.21;89.12;100514.90;104072;1323;71563;-80
2021/12/26 09:31:25;;;;;;;16.60;6.40;;;;;;;-8.14;88.72;100514.99;105103;1321;75370;-79
2021/12/26 09:33:55;;;;;;;13.60;6.70;;;;;;;-8.08;88.55;100519.36;103754;1334;63214;-80
2021/12/26 09:36:21;;;;;;;14.90;8.80;;;;;;;-8.00;88.51;100515.64;104667;1324;60855;-80
2021/12/26 09:38:48;;;;;;;19.20;9.50;;;;;;;-7.92;88.49;100514.63;105031;1328;76215;-80
2021/12/26 09:41:15;;;;;;;21.40;10.30;;;;;;;-7.83;88.30;100514.39;104486;1324;71422;-80
2021/12/26 09:43:42;;;;;;;14.40;8.40;;;;;;;-7.74;87.97;100510.46;105072;1322;72601;-80
2021/12/26 09:46:09;;;;;;;25.00;10.10;;;;;;;-7.67;87.87;100511.36;104971;1321;62596;-80
2021/12/26 09:48:36;;;;;;;13.80;6.40;;;;;;;-7.60;87.62;100511.92;103936;1331;60851;-80
2021/12/26 09:51:03;;;;;;;20.50;9.30;;;;;;;-7.51;87.83;100508.47;104007;1327;75118;-80
2021/12/26 09:53:51;;;;;;;;;;;;;;;;;;;;;
2021/12/26 09:56:21;;;;;;;21.80;8.50;;;;;;;-7.32;88.01;100509.91;104806;1324;71677;-80
2021/12/26 09:59:00;;;;;;;15.90;8.50;;;;;;;-7.21;87.73;100514.94;104647;1325;61496;-79
2021/12/26 10:01:29;;;;;;;20.90;9.80;;;;;;;-7.09;87.63;100513.58;105126;1321;60459;-80
2021/12/26 10:03:59;;;;;;;24.80;11.20;;;;;;;-6.99;87.53;100511.23;105169;1322;75932;-79
2021/12/26 10:06:32;;;;;;;29.40;14.50;;;;;;;-6.86;87.67;100507.39;105069;1325;71456;-80
2021/12/26 10:09:05;;;;;;;29.30;12.20;;;;;;;-6.75;87.11;100508.77;104491;1324;72973;-75
2021/12/26 10:11:37;;;;;;;9.70;4.30;;;;;;;-6.65;86.72;100501.77;104780;1322;62516;-74
2021/12/26 10:14:14;;;;;;;22.50;10.20;;;;;;;-6.56;86.27;100496.04;103793;1325;60491;-75
2021/12/26 10:17:17;;;;;;;10.40;5.80;;;;;;;-6.47;85.83;100489.27;104405;1324;76346;-75
2021/12/26 10:19:46;;;;;;;18.70;9.20;;;;;;;-6.38;86.01;100487.65;104723;1322;72498;-74
2021/12/26 10:22:17;;;;;;;22.20;9.10;;;;;;;-6.28;86.21;100487.89;104767;1323;73688;-75
2021/12/26 10:24:50;;;;;;;22.30;9.00;;;;;;;-6.18;85.82;100488.25;104727;1322;62607;-74
2021/12/26 10:27:37;;;;;;;14.40;6.90;;;;;;;-6.07;85.53;100486.73;104766;1321;60593;-74
2021/12/26 10:30:29;;;;;;;6.30;4.00;;;;;;;-5.99;84.73;100487.70;103749;1321;74913;-75
2021/12/26 10:32:59;;;;;;;39.40;13.00;;;;;;;-5.94;84.16;100489.66;103827;1332;71415;-75
2021/12/26 10:35:28;;;;;;;26.10;11.90;;;;;;;-5.88;84.42;100491.23;104451;1322;73937;-75
2021/12/26 10:37:58;;;;;;;21.20;7.70;;;;;;;-5.80;83.92;100491.91;104734;1322;60374;-75
2021/12/26 10:40:32;;;;;;;37.90;13.80;;;;;;;-5.74;83.91;100489.37;104480;1325;60618;-75
2021/12/26 10:43:02;;;;;;;12.70;4.80;;;;;;;-5.66;83.92;100490.17;103791;1332;75107;-75
2021/12/26 10:46:07;;;;;;;18.30;8.10;;;;;;;-5.60;83.61;100491.77;104851;1322;70474;-75
2021/12/26 10:48:46;;;;;;;36.00;16.20;;;;;;;-5.52;83.61;100489.50;103559;1331;73031;-75
2021/12/26 10:51:36;;;;;;;30.30;11.40;;;;;;;-5.41;84.04;100484.44;104556;1328;61632;-75
2021/12/26 10:54:18;;;;;;;39.70;14.20;;;;;;;-5.26;84.22;100477.98;104763;1324;61650;-75
2021/12/26 10:57:17;;;;;;;;;;;;;;;;;;;;;
2021/12/26 10:59:45;;;;;;;35.10;15.70;;;;;;;-5.04;82.96;100459.79;104781;1319;71862;-74
2021/12/26 11:02:22;;;;;;;36.50;18.80;;;;;;;-4.97;82.70;100461.62;104729;1322;73985;-74
2021/12/26 11:05:03;;;;;;;59.80;20.00;;;;;;;-4.87;82.66;100467.88;104547;1329;61717;-76
2021/12/26 11:07:42;;;;;;;45.60;17.60;;;;;;;-4.82;82.20;100475.85;104747;1326;59502;-75
2021/12/26 11:10:32;;;;;;;12.00;4.70;;;;;;;-4.73;82.42;100469.17;104737;1324;76360;-75
2021/12/26 11:13:13;;;;;;;;;;;;;;;;;;;;;
2021/12/26 11:15:41;;;;;;;12.70;5.40;;;;;;;-4.60;80.62;100467.77;104493;1323;74098;-75
2021/12/26 11:18:11;;;;;;;35.10;11.40;;;;;;;-4.47;79.85;100463.98;104701;1321;61333;-75
2021/12/26 11:20:53;;;;;;;58.00;19.00;;;;;;;-4.41;79.80;100462.92;104494;1325;60867;-75
2021/12/26 11:24:00;;;;;;;53.70;19.70;;;;;;;-4.32;80.46;100462.10;104525;1325;73912;-75
2021/12/26 11:26:30;;;;;;;95.50;29.30;;;;;;;-4.03;80.09;100453.39;104662;1323;72476;-75